sensor_id;sensor_type;location;lat;lon;timestamp;P1;durP1;ratioP1;P2;durP2;ratioP2
21317;SDS011;10818;50.830;6.524;2022-08-18T00:04:52;2.08;;;0.88;;
21317;SDS011;10818;50.830;6.524;2022-08-18T00:09:54;1.05;;;1.05;;
21317;SDS011;10818;50.830;6.524;2022-08-18T00:14:57;1.23;;;0.75;;
21317;SDS011;10818;50.830;6.524;2022-08-18T00:20:05;0.63;;;0.63;;
21317;SDS011;10818;50.830;6.524;2022-08-18T00:25:10;0.40;;;0.40;;
21317;SDS011;10818;50.830;6.524;2022-08-18T00:30:14;0.70;;;0.70;;
21317;SDS011;10818;50.830;6.524;2022-08-18T00:35:20;1.30;;;1.20;;
21317;SDS011;10818;50.830;6.524;2022-08-18T00:40:27;0.70;;;0.70;;
21317;SDS011;10818;50.830;6.524;2022-08-18T00:45:32;0.65;;;0.65;;
21317;SDS011;10818;50.830;6.524;2022-08-18T00:50:48;0.88;;;0.88;;
21317;SDS011;10818;50.830;6.524;2022-08-18T00:55:50;0.53;;;0.53;;
21317;SDS011;10818;50.830;6.524;2022-08-18T01:00:53;0.50;;;0.50;;
21317;SDS011;10818;50.830;6.524;2022-08-18T01:05:59;0.80;;;0.80;;
21317;SDS011;10818;50.830;6.524;2022-08-18T01:11:13;0.68;;;0.68;;
21317;SDS011;10818;50.830;6.524;2022-08-18T01:16:14;0.70;;;0.50;;
21317;SDS011;10818;50.830;6.524;2022-08-18T01:21:35;1.08;;;1.08;;
21317;SDS011;10818;50.830;6.524;2022-08-18T01:26:49;1.00;;;1.00;;
21317;SDS011;10818;50.830;6.524;2022-08-18T01:31:50;0.77;;;0.60;;
21317;SDS011;10818;50.830;6.524;2022-08-18T01:36:54;0.80;;;0.80;;
21317;SDS011;10818;50.830;6.524;2022-08-18T01:41:55;0.35;;;0.35;;
21317;SDS011;10818;50.830;6.524;2022-08-18T01:46:56;1.20;;;1.20;;
21317;SDS011;10818;50.830;6.524;2022-08-18T01:51:56;0.60;;;0.60;;
21317;SDS011;10818;50.830;6.524;2022-08-18T01:56:57;1.30;;;1.13;;
21317;SDS011;10818;50.830;6.524;2022-08-18T02:01:58;0.47;;;0.47;;
21317;SDS011;10818;50.830;6.524;2022-08-18T02:06:59;0.90;;;0.90;;
21317;SDS011;10818;50.830;6.524;2022-08-18T02:12:01;0.60;;;0.60;;
21317;SDS011;10818;50.830;6.524;2022-08-18T02:17:03;0.80;;;0.70;;
21317;SDS011;10818;50.830;6.524;2022-08-18T02:22:07;0.67;;;0.67;;
21317;SDS011;10818;50.830;6.524;2022-08-18T02:27:09;0.60;;;0.60;;
21317;SDS011;10818;50.830;6.524;2022-08-18T02:32:10;0.80;;;0.80;;
21317;SDS011;10818;50.830;6.524;2022-08-18T02:37:11;2.13;;;1.52;;
21317;SDS011;10818;50.830;6.524;2022-08-18T02:42:12;1.40;;;1.30;;
21317;SDS011;10818;50.830;6.524;2022-08-18T02:47:13;1.08;;;1.08;;
21317;SDS011;10818;50.830;6.524;2022-08-18T02:52:14;1.03;;;1.03;;
21317;SDS011;10818;50.830;6.524;2022-08-18T02:57:15;1.77;;;1.67;;
21317;SDS011;10818;50.830;6.524;2022-08-18T03:02:16;3.43;;;1.90;;
21317;SDS011;10818;50.830;6.524;2022-08-18T03:07:17;1.33;;;1.33;;
21317;SDS011;10818;50.830;6.524;2022-08-18T03:12:18;1.00;;;1.00;;
21317;SDS011;10818;50.830;6.524;2022-08-18T03:17:18;1.67;;;1.58;;
21317;SDS011;10818;50.830;6.524;2022-08-18T03:22:19;2.23;;;2.03;;
21317;SDS011;10818;50.830;6.524;2022-08-18T03:27:19;2.33;;;1.60;;
21317;SDS011;10818;50.830;6.524;2022-08-18T03:32:20;3.25;;;1.45;;
21317;SDS011;10818;50.830;6.524;2022-08-18T03:37:21;1.63;;;1.52;;
21317;SDS011;10818;50.830;6.524;2022-08-18T03:42:21;2.33;;;1.27;;
21317;SDS011;10818;50.830;6.524;2022-08-18T03:47:22;1.10;;;1.10;;
21317;SDS011;10818;50.830;6.524;2022-08-18T03:52:23;1.40;;;1.30;;
21317;SDS011;10818;50.830;6.524;2022-08-18T03:57:24;1.70;;;1.57;;
21317;SDS011;10818;50.830;6.524;2022-08-18T04:02:24;1.00;;;1.00;;
21317;SDS011;10818;50.830;6.524;2022-08-18T04:07:25;2.15;;;1.95;;
21317;SDS011;10818;50.830;6.524;2022-08-18T04:12:26;1.10;;;1.10;;
21317;SDS011;10818;50.830;6.524;2022-08-18T04:17:26;4.73;;;2.50;;
21317;SDS011;10818;50.830;6.524;2022-08-18T04:22:27;3.70;;;2.60;;
21317;SDS011;10818;50.830;6.524;2022-08-18T04:27:27;0.60;;;0.60;;
21317;SDS011;10818;50.830;6.524;2022-08-18T04:32:29;0.98;;;0.98;;
21317;SDS011;10818;50.830;6.524;2022-08-18T04:37:30;2.85;;;2.65;;
21317;SDS011;10818;50.830;6.524;2022-08-18T04:42:31;1.73;;;1.52;;
21317;SDS011;10818;50.830;6.524;2022-08-18T04:47:31;2.57;;;2.37;;
21317;SDS011;10818;50.830;6.524;2022-08-18T04:52:33;2.00;;;1.58;;
21317;SDS011;10818;50.830;6.524;2022-08-18T04:57:52;2.60;;;2.40;;
21317;SDS011;10818;50.830;6.524;2022-08-18T05:02:55;1.87;;;1.77;;
21317;SDS011;10818;50.830;6.524;2022-08-18T05:07:55;4.45;;;3.28;;
21317;SDS011;10818;50.830;6.524;2022-08-18T05:12:56;2.13;;;2.00;;
21317;SDS011;10818;50.830;6.524;2022-08-18T05:17:57;3.08;;;2.63;;
21317;SDS011;10818;50.830;6.524;2022-08-18T05:22:57;4.23;;;3.87;;
21317;SDS011;10818;50.830;6.524;2022-08-18T05:27:58;3.20;;;1.87;;
21317;SDS011;10818;50.830;6.524;2022-08-18T05:32:59;3.97;;;3.33;;
21317;SDS011;10818;50.830;6.524;2022-08-18T05:43:12;1.93;;;1.83;;
21317;SDS011;10818;50.830;6.524;2022-08-18T05:48:15;1.92;;;1.80;;
21317;SDS011;10818;50.830;6.524;2022-08-18T05:53:16;1.67;;;1.58;;
21317;SDS011;10818;50.830;6.524;2022-08-18T05:58:35;1.30;;;1.10;;
21317;SDS011;10818;50.830;6.524;2022-08-18T06:03:42;1.93;;;1.83;;
21317;SDS011;10818;50.830;6.524;2022-08-18T06:14:11;2.63;;;1.63;;
21317;SDS011;10818;50.830;6.524;2022-08-18T06:24:35;1.77;;;1.67;;
21317;SDS011;10818;50.830;6.524;2022-08-18T06:29:41;2.83;;;2.40;;
21317;SDS011;10818;50.830;6.524;2022-08-18T06:35:49;3.03;;;2.83;;
21317;SDS011;10818;50.830;6.524;2022-08-18T06:40:33;7.30;;;2.20;;
21317;SDS011;10818;50.830;6.524;2022-08-18T06:45:35;3.03;;;2.23;;
21317;SDS011;10818;50.830;6.524;2022-08-18T06:50:47;2.90;;;2.57;;
21317;SDS011;10818;50.830;6.524;2022-08-18T06:55:52;1.92;;;1.83;;
21317;SDS011;10818;50.830;6.524;2022-08-18T07:00:54;3.33;;;3.00;;
21317;SDS011;10818;50.830;6.524;2022-08-18T07:05:59;4.75;;;2.67;;
21317;SDS011;10818;50.830;6.524;2022-08-18T07:21:28;1.83;;;1.73;;
21317;SDS011;10818;50.830;6.524;2022-08-18T07:26:32;3.27;;;2.63;;
21317;SDS011;10818;50.830;6.524;2022-08-18T07:32:13;3.50;;;2.87;;
21317;SDS011;10818;50.830;6.524;2022-08-18T07:37:23;2.47;;;2.28;;
21317;SDS011;10818;50.830;6.524;2022-08-18T07:47:44;3.13;;;2.17;;
21317;SDS011;10818;50.830;6.524;2022-08-18T07:52:59;0.93;;;0.93;;
21317;SDS011;10818;50.830;6.524;2022-08-18T08:30:26;5.03;;;2.27;;
21317;SDS011;10818;50.830;6.524;2022-08-18T08:40:56;0.80;;;0.80;;
21317;SDS011;10818;50.830;6.524;2022-08-18T08:56:22;1.57;;;1.50;;
21317;SDS011;10818;50.830;6.524;2022-08-18T09:01:29;2.03;;;1.83;;
21317;SDS011;10818;50.830;6.524;2022-08-18T09:06:43;1.48;;;1.38;;
21317;SDS011;10818;50.830;6.524;2022-08-18T09:17:44;1.48;;;1.38;;
21317;SDS011;10818;50.830;6.524;2022-08-18T09:23:11;0.93;;;0.93;;
21317;SDS011;10818;50.830;6.524;2022-08-18T09:28:21;1.90;;;1.48;;
21317;SDS011;10818;50.830;6.524;2022-08-18T09:49:55;1.10;;;1.02;;
21317;SDS011;10818;50.830;6.524;2022-08-18T10:10:26;1.30;;;1.20;;
21317;SDS011;10818;50.830;6.524;2022-08-18T10:16:00;0.77;;;0.77;;
21317;SDS011;10818;50.830;6.524;2022-08-18T10:21:28;0.85;;;0.85;;
21317;SDS011;10818;50.830;6.524;2022-08-18T10:36:54;1.00;;;0.90;;
21317;SDS011;10818;50.830;6.524;2022-08-18T10:42:04;0.93;;;0.93;;
21317;SDS011;10818;50.830;6.524;2022-08-18T10:47:46;0.93;;;0.93;;
21317;SDS011;10818;50.830;6.524;2022-08-18T11:04:12;5.88;;;1.08;;
21317;SDS011;10818;50.830;6.524;2022-08-18T11:09:24;1.40;;;1.30;;
21317;SDS011;10818;50.830;6.524;2022-08-18T11:19:47;2.20;;;0.70;;
21317;SDS011;10818;50.830;6.524;2022-08-18T11:24:48;0.77;;;0.77;;
21317;SDS011;10818;50.830;6.524;2022-08-18T11:29:52;0.77;;;0.77;;
21317;SDS011;10818;50.830;6.524;2022-08-18T11:39:57;1.03;;;0.83;;
21317;SDS011;10818;50.830;6.524;2022-08-18T11:50:15;0.80;;;0.80;;
21317;SDS011;10818;50.830;6.524;2022-08-18T11:55:29;1.50;;;1.05;;
21317;SDS011;10818;50.830;6.524;2022-08-18T12:00:51;0.88;;;0.88;;
21317;SDS011;10818;50.830;6.524;2022-08-18T12:05:59;0.80;;;0.70;;
21317;SDS011;10818;50.830;6.524;2022-08-18T12:16:37;0.50;;;0.50;;
21317;SDS011;10818;50.830;6.524;2022-08-18T12:21:44;0.80;;;0.80;;
21317;SDS011;10818;50.830;6.524;2022-08-18T12:26:49;0.90;;;0.90;;
21317;SDS011;10818;50.830;6.524;2022-08-18T12:31:51;0.43;;;0.43;;
21317;SDS011;10818;50.830;6.524;2022-08-18T12:36:54;0.73;;;0.73;;
21317;SDS011;10818;50.830;6.524;2022-08-18T12:41:56;0.40;;;0.40;;
21317;SDS011;10818;50.830;6.524;2022-08-18T12:46:57;0.70;;;0.70;;
21317;SDS011;10818;50.830;6.524;2022-08-18T12:51:59;0.95;;;0.85;;
21317;SDS011;10818;50.830;6.524;2022-08-18T12:57:01;5.20;;;0.80;;
21317;SDS011;10818;50.830;6.524;2022-08-18T13:02:04;1.48;;;0.63;;
21317;SDS011;10818;50.830;6.524;2022-08-18T13:07:07;0.60;;;0.60;;
21317;SDS011;10818;50.830;6.524;2022-08-18T13:12:09;0.40;;;0.40;;
21317;SDS011;10818;50.830;6.524;2022-08-18T13:17:11;0.45;;;0.45;;
21317;SDS011;10818;50.830;6.524;2022-08-18T13:22:13;0.50;;;0.50;;
21317;SDS011;10818;50.830;6.524;2022-08-18T13:27:14;0.82;;;0.82;;
21317;SDS011;10818;50.830;6.524;2022-08-18T13:32:15;0.50;;;0.50;;
21317;SDS011;10818;50.830;6.524;2022-08-18T13:37:17;0.63;;;0.63;;
21317;SDS011;10818;50.830;6.524;2022-08-18T13:42:18;0.27;;;0.27;;
21317;SDS011;10818;50.830;6.524;2022-08-18T13:47:18;0.23;;;0.23;;
21317;SDS011;10818;50.830;6.524;2022-08-18T13:52:19;0.40;;;0.40;;
21317;SDS011;10818;50.830;6.524;2022-08-18T13:57:19;1.93;;;0.73;;
21317;SDS011;10818;50.830;6.524;2022-08-18T14:02:20;0.10;;;0.10;;
21317;SDS011;10818;50.830;6.524;2022-08-18T14:07:21;0.27;;;0.27;;
21317;SDS011;10818;50.830;6.524;2022-08-18T14:12:22;0.40;;;0.40;;
21317;SDS011;10818;50.830;6.524;2022-08-18T14:17:23;0.20;;;0.20;;
21317;SDS011;10818;50.830;6.524;2022-08-18T14:22:25;0.10;;;0.10;;
21317;SDS011;10818;50.830;6.524;2022-08-18T14:27:44;0.60;;;0.60;;
21317;SDS011;10818;50.830;6.524;2022-08-18T14:32:44;0.10;;;0.10;;
21317;SDS011;10818;50.830;6.524;2022-08-18T14:37:45;0.10;;;0.10;;
21317;SDS011;10818;50.830;6.524;2022-08-18T14:42:46;0.38;;;0.38;;
21317;SDS011;10818;50.830;6.524;2022-08-18T14:47:47;0.60;;;0.40;;
21317;SDS011;10818;50.830;6.524;2022-08-18T14:52:48;0.17;;;0.17;;
21317;SDS011;10818;50.830;6.524;2022-08-18T14:57:49;0.65;;;0.55;;
21317;SDS011;10818;50.830;6.524;2022-08-18T15:02:49;0.20;;;0.20;;
21317;SDS011;10818;50.830;6.524;2022-08-18T15:07:51;0.10;;;0.10;;
21317;SDS011;10818;50.830;6.524;2022-08-18T15:12:51;0.20;;;0.20;;
21317;SDS011;10818;50.830;6.524;2022-08-18T15:17:52;1.10;;;0.70;;
21317;SDS011;10818;50.830;6.524;2022-08-18T15:22:52;0.20;;;0.20;;
21317;SDS011;10818;50.830;6.524;2022-08-18T15:28:19;0.17;;;0.17;;
21317;SDS011;10818;50.830;6.524;2022-08-18T15:33:21;0.20;;;0.20;;
21317;SDS011;10818;50.830;6.524;2022-08-18T15:38:23;0.40;;;0.40;;
21317;SDS011;10818;50.830;6.524;2022-08-18T15:43:25;0.40;;;0.40;;
21317;SDS011;10818;50.830;6.524;2022-08-18T15:48:27;0.10;;;0.10;;
21317;SDS011;10818;50.830;6.524;2022-08-18T15:53:28;0.50;;;0.50;;
21317;SDS011;10818;50.830;6.524;2022-08-18T15:58:28;0.20;;;0.20;;
21317;SDS011;10818;50.830;6.524;2022-08-18T16:03:29;0.10;;;0.10;;
21317;SDS011;10818;50.830;6.524;2022-08-18T16:08:30;0.15;;;0.15;;
21317;SDS011;10818;50.830;6.524;2022-08-18T16:13:31;0.70;;;0.70;;
21317;SDS011;10818;50.830;6.524;2022-08-18T16:18:31;0.20;;;0.20;;
21317;SDS011;10818;50.830;6.524;2022-08-18T16:23:32;0.10;;;0.10;;
21317;SDS011;10818;50.830;6.524;2022-08-18T16:28:33;0.13;;;0.13;;
21317;SDS011;10818;50.830;6.524;2022-08-18T16:33:34;0.27;;;0.27;;
21317;SDS011;10818;50.830;6.524;2022-08-18T16:38:35;0.13;;;0.13;;
21317;SDS011;10818;50.830;6.524;2022-08-18T16:43:37;0.15;;;0.15;;
21317;SDS011;10818;50.830;6.524;2022-08-18T16:48:39;0.20;;;0.20;;
21317;SDS011;10818;50.830;6.524;2022-08-18T16:53:39;0.10;;;0.10;;
21317;SDS011;10818;50.830;6.524;2022-08-18T16:58:40;0.32;;;0.32;;
21317;SDS011;10818;50.830;6.524;2022-08-18T17:03:59;0.20;;;0.20;;
21317;SDS011;10818;50.830;6.524;2022-08-18T17:09:06;0.30;;;0.30;;
21317;SDS011;10818;50.830;6.524;2022-08-18T17:14:08;0.30;;;0.30;;
21317;SDS011;10818;50.830;6.524;2022-08-18T17:19:09;0.30;;;0.30;;
21317;SDS011;10818;50.830;6.524;2022-08-18T17:24:10;0.40;;;0.40;;
21317;SDS011;10818;50.830;6.524;2022-08-18T17:29:16;0.10;;;0.10;;
21317;SDS011;10818;50.830;6.524;2022-08-18T17:34:17;0.50;;;0.50;;
21317;SDS011;10818;50.830;6.524;2022-08-18T17:39:22;0.20;;;0.20;;
21317;SDS011;10818;50.830;6.524;2022-08-18T17:44:28;0.30;;;0.30;;
21317;SDS011;10818;50.830;6.524;2022-08-18T17:49:41;0.30;;;0.30;;
21317;SDS011;10818;50.830;6.524;2022-08-18T17:55:06;0.20;;;0.20;;
21317;SDS011;10818;50.830;6.524;2022-08-18T18:00:13;0.20;;;0.20;;
21317;SDS011;10818;50.830;6.524;2022-08-18T18:05:17;0.10;;;0.10;;
21317;SDS011;10818;50.830;6.524;2022-08-18T18:15:48;0.10;;;0.10;;
21317;SDS011;10818;50.830;6.524;2022-08-18T18:20:57;0.20;;;0.20;;
21317;SDS011;10818;50.830;6.524;2022-08-18T18:31:27;0.50;;;0.50;;
21317;SDS011;10818;50.830;6.524;2022-08-18T18:36:31;0.70;;;0.70;;
21317;SDS011;10818;50.830;6.524;2022-08-18T18:41:37;0.70;;;0.50;;
21317;SDS011;10818;50.830;6.524;2022-08-18T18:46:42;1.30;;;0.77;;
21317;SDS011;10818;50.830;6.524;2022-08-18T19:03:22;1.38;;;1.33;;
21317;SDS011;10818;50.830;6.524;2022-08-18T19:09:12;0.23;;;0.23;;
21317;SDS011;10818;50.830;6.524;2022-08-18T19:14:25;0.45;;;0.45;;
21317;SDS011;10818;50.830;6.524;2022-08-18T19:19:33;0.23;;;0.23;;
21317;SDS011;10818;50.830;6.524;2022-08-18T19:24:42;0.60;;;0.60;;
21317;SDS011;10818;50.830;6.524;2022-08-18T19:29:56;0.70;;;0.70;;
21317;SDS011;10818;50.830;6.524;2022-08-18T19:35:01;0.20;;;0.20;;
21317;SDS011;10818;50.830;6.524;2022-08-18T19:40:11;0.43;;;0.43;;
21317;SDS011;10818;50.830;6.524;2022-08-18T19:45:39;0.20;;;0.20;;
21317;SDS011;10818;50.830;6.524;2022-08-18T19:50:55;0.50;;;0.50;;
21317;SDS011;10818;50.830;6.524;2022-08-18T19:56:13;0.10;;;0.10;;
21317;SDS011;10818;50.830;6.524;2022-08-18T20:01:24;0.47;;;0.47;;
21317;SDS011;10818;50.830;6.524;2022-08-18T20:22:58;0.43;;;0.43;;
21317;SDS011;10818;50.830;6.524;2022-08-18T20:33:12;0.20;;;0.20;;
21317;SDS011;10818;50.830;6.524;2022-08-18T20:43:33;0.43;;;0.43;;
21317;SDS011;10818;50.830;6.524;2022-08-18T20:48:41;0.20;;;0.20;;
21317;SDS011;10818;50.830;6.524;2022-08-18T20:54:08;0.40;;;0.40;;
21317;SDS011;10818;50.830;6.524;2022-08-18T20:59:31;0.17;;;0.17;;
21317;SDS011;10818;50.830;6.524;2022-08-18T21:04:48;0.30;;;0.30;;
21317;SDS011;10818;50.830;6.524;2022-08-18T21:09:51;0.70;;;0.70;;
21317;SDS011;10818;50.830;6.524;2022-08-18T21:14:57;0.93;;;0.60;;
21317;SDS011;10818;50.830;6.524;2022-08-18T21:20:04;0.30;;;0.30;;
21317;SDS011;10818;50.830;6.524;2022-08-18T21:25:12;0.20;;;0.20;;
21317;SDS011;10818;50.830;6.524;2022-08-18T21:30:19;0.38;;;0.38;;
21317;SDS011;10818;50.830;6.524;2022-08-18T21:35:31;0.50;;;0.50;;
21317;SDS011;10818;50.830;6.524;2022-08-18T21:45:45;0.40;;;0.40;;
21317;SDS011;10818;50.830;6.524;2022-08-18T21:50:51;0.20;;;0.20;;
21317;SDS011;10818;50.830;6.524;2022-08-18T21:55:57;0.57;;;0.57;;
21317;SDS011;10818;50.830;6.524;2022-08-18T22:11:32;0.50;;;0.50;;
21317;SDS011;10818;50.830;6.524;2022-08-18T22:16:58;0.20;;;0.20;;
21317;SDS011;10818;50.830;6.524;2022-08-18T22:22:43;0.20;;;0.20;;
21317;SDS011;10818;50.830;6.524;2022-08-18T22:28:03;0.35;;;0.35;;
21317;SDS011;10818;50.830;6.524;2022-08-18T22:33:03;0.50;;;0.50;;
21317;SDS011;10818;50.830;6.524;2022-08-18T22:38:05;1.10;;;0.50;;
21317;SDS011;10818;50.830;6.524;2022-08-18T22:43:05;0.50;;;0.50;;
21317;SDS011;10818;50.830;6.524;2022-08-18T22:48:06;0.53;;;0.53;;
21317;SDS011;10818;50.830;6.524;2022-08-18T22:53:06;0.43;;;0.43;;
21317;SDS011;10818;50.830;6.524;2022-08-18T22:58:07;0.40;;;0.40;;
21317;SDS011;10818;50.830;6.524;2022-08-18T23:03:08;0.43;;;0.43;;
21317;SDS011;10818;50.830;6.524;2022-08-18T23:08:08;0.20;;;0.20;;
21317;SDS011;10818;50.830;6.524;2022-08-18T23:13:09;0.90;;;0.90;;
21317;SDS011;10818;50.830;6.524;2022-08-18T23:18:10;0.37;;;0.37;;
21317;SDS011;10818;50.830;6.524;2022-08-18T23:23:10;0.30;;;0.30;;
21317;SDS011;10818;50.830;6.524;2022-08-18T23:28:11;0.45;;;0.45;;
21317;SDS011;10818;50.830;6.524;2022-08-18T23:33:12;0.30;;;0.30;;
21317;SDS011;10818;50.830;6.524;2022-08-18T23:38:14;0.20;;;0.20;;
21317;SDS011;10818;50.830;6.524;2022-08-18T23:43:16;0.52;;;0.52;;
21317;SDS011;10818;50.830;6.524;2022-08-18T23:48:18;0.40;;;0.40;;
21317;SDS011;10818;50.830;6.524;2022-08-18T23:53:19;0.27;;;0.27;;
21317;SDS011;10818;50.830;6.524;2022-08-18T23:58:20;0.60;;;0.60;;
